createdAt,value
2023-05-21T00:02:55.887Z,8.75
2023-05-21T00:05:58.606Z,8.15
2023-05-21T00:09:01.182Z,7.57
2023-05-21T00:12:04.785Z,10.23
2023-05-21T00:15:08.024Z,9.27
2023-05-21T00:18:10.767Z,9.43
2023-05-21T00:21:14.278Z,9.27
2023-05-21T00:24:16.830Z,8.60
2023-05-21T00:27:19.726Z,8.85
2023-05-21T00:30:22.566Z,10.18
2023-05-21T00:33:29.125Z,7.88
2023-05-21T00:36:31.954Z,8.43
2023-05-21T00:39:34.527Z,8.40
2023-05-21T00:42:41.322Z,8.50
2023-05-21T00:45:48.683Z,8.82
2023-05-21T00:48:52.302Z,8.18
2023-05-21T00:51:55.631Z,9.93
2023-05-21T00:54:58.336Z,10.03
2023-05-21T00:58:00.919Z,8.32
2023-05-21T01:01:03.978Z,8.52
2023-05-21T01:04:06.694Z,8.55
2023-05-21T01:07:09.647Z,9.07
2023-05-21T01:10:12.681Z,8.30
2023-05-21T01:13:16.473Z,9.05
2023-05-21T01:16:19.218Z,8.45
2023-05-21T01:19:22.884Z,9.50
2023-05-21T01:22:26.455Z,7.85
2023-05-21T01:25:29.147Z,7.90
2023-05-21T01:28:34.745Z,7.88
2023-05-21T01:31:51.461Z,7.80
2023-05-21T01:35:05.412Z,8.32
2023-05-21T01:38:27.288Z,8.25
2023-05-21T01:41:33.780Z,11.77
2023-05-21T01:44:37.839Z,8.13
2023-05-21T01:47:41.958Z,9.10
2023-05-21T01:50:45.814Z,10.55
2023-05-21T01:53:48.421Z,9.52
2023-05-21T01:56:51.095Z,8.47
2023-05-21T01:59:54.246Z,9.02
2023-05-21T02:02:57.263Z,10.55
2023-05-21T02:05:59.915Z,8.80
2023-05-21T02:09:03.813Z,9.75
2023-05-21T02:12:07.310Z,10.27
2023-05-21T02:15:10.813Z,9.27
2023-05-21T02:18:16.776Z,10.63
2023-05-21T02:21:20.888Z,8.95
2023-05-21T02:24:24.587Z,9.23
2023-05-21T02:27:31.850Z,11.00
2023-05-21T02:30:34.558Z,9.52
2023-05-21T02:33:37.340Z,10.38
2023-05-21T02:36:41.743Z,9.70
2023-05-21T02:39:44.286Z,8.65
2023-05-21T02:42:46.922Z,10.77
2023-05-21T02:45:54.087Z,8.63
2023-05-21T02:48:56.810Z,8.60
2023-05-21T02:51:59.488Z,9.10
2023-05-21T02:55:02.101Z,8.77
2023-05-21T02:58:05.031Z,9.50
2023-05-21T03:01:07.696Z,9.00
2023-05-21T03:04:10.574Z,9.15
2023-05-21T03:07:14.523Z,11.00
2023-05-21T03:10:17.442Z,10.63
2023-05-21T03:13:20.291Z,10.90
2023-05-21T03:16:23.960Z,10.70
2023-05-21T03:19:27.284Z,10.55
2023-05-21T03:22:29.915Z,10.88
2023-05-21T03:25:32.488Z,10.02
2023-05-21T03:28:35.984Z,9.23
2023-05-21T03:31:39.086Z,10.38
2023-05-21T03:34:47.033Z,9.82
2023-05-21T03:37:51.272Z,8.60
2023-05-21T03:40:54.300Z,9.77
2023-05-21T03:43:57.310Z,10.50
2023-05-21T03:47:04.088Z,10.38
2023-05-21T03:50:10.676Z,10.05
2023-05-21T03:53:14.006Z,10.32
2023-05-21T03:56:17.018Z,9.48
2023-05-21T03:59:19.859Z,8.87
2023-05-21T04:02:23.370Z,10.75
2023-05-21T04:05:26.525Z,8.43
2023-05-21T04:08:29.166Z,8.95
2023-05-21T04:11:32.399Z,9.27
2023-05-21T04:14:36.956Z,9.03
2023-05-21T04:17:40.052Z,10.43
2023-05-21T04:20:43.179Z,8.80
2023-05-21T04:23:46.223Z,10.18
2023-05-21T04:27:10.972Z,9.23
2023-05-21T04:30:13.990Z,9.73
2023-05-21T04:33:20.399Z,10.15
2023-05-21T04:36:24.457Z,9.68
2023-05-21T04:39:26.967Z,11.25
2023-05-21T04:42:30.526Z,9.45
2023-05-21T04:45:33.907Z,9.23
2023-05-21T04:48:36.858Z,10.50
2023-05-21T04:51:40.117Z,10.70
2023-05-21T04:54:42.914Z,10.02
2023-05-21T04:57:45.550Z,9.80
2023-05-21T05:00:50.956Z,8.80
2023-05-21T05:03:53.842Z,9.63
2023-05-21T05:06:56.610Z,10.93
2023-05-21T05:09:59.200Z,9.10
2023-05-21T05:13:01.802Z,9.43
2023-05-21T05:16:06.221Z,10.13
2023-05-21T05:19:09.200Z,10.10
2023-05-21T05:22:13.435Z,9.82
2023-05-21T05:25:17.296Z,10.27
2023-05-21T05:28:20.690Z,9.32
2023-05-21T05:31:23.809Z,8.83
2023-05-21T05:34:27.879Z,8.93
2023-05-21T05:37:31.189Z,9.05
2023-05-21T05:40:34.967Z,9.77
2023-05-21T05:43:37.540Z,9.38
2023-05-21T05:46:40.242Z,8.67
2023-05-21T05:49:42.894Z,8.88
2023-05-21T05:52:45.933Z,10.07
2023-05-21T05:55:48.579Z,9.90
2023-05-21T05:58:51.208Z,9.50
2023-05-21T06:01:54.075Z,8.20
2023-05-21T06:04:56.789Z,8.13
2023-05-21T06:07:59.482Z,8.38
2023-05-21T06:11:02.084Z,9.07
2023-05-21T06:14:04.733Z,9.02
2023-05-21T06:17:07.295Z,8.63
2023-05-21T06:20:10.150Z,8.48
2023-05-21T06:23:13.115Z,8.50
2023-05-21T06:26:19.219Z,9.18
2023-05-21T06:29:23.954Z,8.70
2023-05-21T06:32:26.741Z,8.90
2023-05-21T06:35:29.546Z,8.45
2023-05-21T06:38:32.131Z,9.07
2023-05-21T06:41:36.321Z,8.82
2023-05-21T06:44:56.098Z,7.88
2023-05-21T06:48:04.447Z,8.60
2023-05-21T06:51:07.342Z,8.27
2023-05-21T06:54:09.992Z,8.73
2023-05-21T06:57:16.293Z,8.48
2023-05-21T07:00:19.166Z,8.75
2023-05-21T07:03:22.179Z,8.07
2023-05-21T07:06:24.915Z,9.00
2023-05-21T07:09:27.795Z,8.05
2023-05-21T07:12:30.541Z,8.98
2023-05-21T07:15:33.311Z,8.55
2023-05-21T07:18:37.837Z,8.40
2023-05-21T07:21:40.480Z,8.50
2023-05-21T07:24:43.798Z,8.27
2023-05-21T07:27:46.474Z,8.20
2023-05-21T07:30:49.093Z,10.20
2023-05-21T07:33:56.526Z,7.30
2023-05-21T07:37:03.668Z,7.47
2023-05-21T07:40:07.949Z,7.78
2023-05-21T07:43:12.910Z,8.50
2023-05-21T07:46:16.582Z,8.52
2023-05-21T07:49:21.575Z,7.40
2023-05-21T07:52:24.149Z,8.95
2023-05-21T07:55:26.820Z,8.13
2023-05-21T07:58:31.150Z,7.70
2023-05-21T08:01:34.574Z,8.65
2023-05-21T08:04:40.897Z,11.50
2023-05-21T08:07:46.387Z,8.20
2023-05-21T08:10:49.841Z,8.00
2023-05-21T08:13:53.178Z,8.45
2023-05-21T08:16:57.313Z,8.52
2023-05-21T08:19:59.871Z,7.83
2023-05-21T08:23:05.855Z,7.47
2023-05-21T08:26:18.499Z,7.45
2023-05-21T08:29:21.345Z,7.60
2023-05-21T08:32:24.069Z,8.27
2023-05-21T08:35:26.751Z,7.90
2023-05-21T08:38:34.515Z,8.00
2023-05-21T08:42:02.547Z,8.05
2023-05-21T08:45:09.597Z,7.70
2023-05-21T08:48:13.279Z,8.15
2023-05-21T08:51:17.062Z,8.83
2023-05-21T08:54:24.156Z,7.53
2023-05-21T08:57:27.778Z,7.13
2023-05-21T09:00:31.399Z,7.90
2023-05-21T09:03:39.393Z,8.35
2023-05-21T09:06:43.958Z,8.07
2023-05-21T09:09:58.724Z,9.40
2023-05-21T09:13:03.026Z,8.32
2023-05-21T09:16:06.709Z,7.55
2023-05-21T09:19:09.513Z,7.85
2023-05-21T09:22:13.244Z,7.07
2023-05-21T09:25:18.953Z,7.93
2023-05-21T09:28:21.602Z,8.07
2023-05-21T09:31:24.585Z,7.90
2023-05-21T09:34:28.089Z,7.43
2023-05-21T09:37:32.350Z,7.40
2023-05-21T09:40:35.806Z,7.68
2023-05-21T09:43:38.645Z,7.72
2023-05-21T09:46:42.112Z,7.30
2023-05-21T09:49:45.053Z,7.25
2023-05-21T09:52:50.412Z,6.57
2023-05-21T09:55:57.912Z,7.57
2023-05-21T09:59:04.419Z,7.20
2023-05-21T10:02:23.595Z,7.25
2023-05-21T10:05:28.272Z,7.38
2023-05-21T10:08:36.252Z,7.20
2023-05-21T10:11:43.019Z,6.78
2023-05-21T10:14:50.699Z,7.65
2023-05-21T10:17:55.667Z,7.68
2023-05-21T10:20:59.519Z,7.75
2023-05-21T10:24:03.274Z,7.33
2023-05-21T10:27:07.293Z,8.68
2023-05-21T10:30:10.337Z,7.90
2023-05-21T10:33:16.642Z,7.68
2023-05-21T10:36:21.959Z,7.45
2023-05-21T10:39:25.793Z,7.33
2023-05-21T10:42:31.006Z,8.00
2023-05-21T10:45:59.031Z,7.38
2023-05-21T10:49:13.409Z,7.82
2023-05-21T10:52:34.077Z,6.90
2023-05-21T10:56:10.071Z,6.97
2023-05-21T10:59:29.330Z,7.80
2023-05-21T11:02:32.841Z,7.35
2023-05-21T11:06:02.738Z,6.82
2023-05-21T11:09:15.223Z,7.60
2023-05-21T11:12:18.198Z,6.87
2023-05-21T11:15:20.844Z,7.60
2023-05-21T11:18:44.166Z,7.82
2023-05-21T11:21:55.532Z,7.50
2023-05-21T11:25:02.140Z,8.25
2023-05-21T11:28:06.673Z,8.10
2023-05-21T11:31:47.992Z,7.32
2023-05-21T11:34:50.921Z,7.38
2023-05-21T11:37:56.055Z,8.15
2023-05-21T11:41:03.591Z,7.63
2023-05-21T11:44:09.088Z,6.67
2023-05-21T11:47:15.090Z,7.00
2023-05-21T11:50:21.202Z,7.15
2023-05-21T11:53:24.000Z,6.70
2023-05-21T11:56:27.120Z,7.10
2023-05-21T11:59:29.835Z,7.10
2023-05-21T12:02:33.423Z,6.93
2023-05-21T12:05:46.822Z,7.07
2023-05-21T12:08:52.853Z,7.20
2023-05-21T12:11:55.568Z,6.90
2023-05-21T12:14:58.658Z,6.93
2023-05-21T12:18:01.334Z,6.82
2023-05-21T12:21:05.017Z,7.20
2023-05-21T12:24:07.538Z,6.82
2023-05-21T12:27:13.009Z,7.22
2023-05-21T12:30:15.926Z,6.70
2023-05-21T12:33:19.185Z,7.13
2023-05-21T12:36:34.288Z,7.18
2023-05-21T12:39:50.750Z,7.03
2023-05-21T12:42:53.360Z,6.88
2023-05-21T12:45:56.037Z,7.03
2023-05-21T12:48:59.010Z,6.80
2023-05-21T12:52:11.861Z,6.90
2023-05-21T12:55:15.203Z,7.13
2023-05-21T12:58:22.238Z,6.85
2023-05-21T13:01:25.227Z,6.23
2023-05-21T13:04:28.283Z,6.07
2023-05-21T13:07:35.567Z,5.90
2023-05-21T13:10:38.363Z,6.47
2023-05-21T13:13:41.205Z,7.53
2023-05-21T13:16:43.706Z,6.60
2023-05-21T13:20:15.003Z,7.20
2023-05-21T13:23:17.585Z,7.20
2023-05-21T13:26:20.190Z,6.82
2023-05-21T13:29:22.764Z,6.20
2023-05-21T13:32:25.338Z,6.83
2023-05-21T13:35:27.975Z,6.63
2023-05-21T13:38:30.621Z,6.57
2023-05-21T13:41:33.717Z,7.03
2023-05-21T13:44:36.819Z,6.70
2023-05-21T13:47:40.638Z,8.53
2023-05-21T13:50:43.391Z,6.53
2023-05-21T13:53:45.974Z,7.38
2023-05-21T13:56:48.553Z,7.03
2023-05-21T13:59:51.080Z,6.68
2023-05-21T14:02:54.143Z,7.00
2023-05-21T14:05:57.416Z,6.55
2023-05-21T14:09:00.360Z,6.85
2023-05-21T14:12:06.398Z,6.15
2023-05-21T14:15:09.849Z,7.05
2023-05-21T14:18:12.569Z,6.67
2023-05-21T14:21:15.398Z,7.15
2023-05-21T14:24:17.969Z,6.45
2023-05-21T14:27:20.559Z,7.05
2023-05-21T14:30:23.186Z,6.90
2023-05-21T14:33:25.693Z,7.83
2023-05-21T14:36:28.298Z,6.57
2023-05-21T14:39:30.860Z,8.13
2023-05-21T14:42:34.455Z,6.40
2023-05-21T14:45:37.329Z,6.95
2023-05-21T14:48:40.009Z,7.13
2023-05-21T14:51:43.776Z,7.65
2023-05-21T14:54:46.308Z,6.50
2023-05-21T14:57:48.994Z,6.90
2023-05-21T15:00:51.650Z,7.20
2023-05-21T15:03:56.180Z,7.67
2023-05-21T15:06:58.990Z,6.97
2023-05-21T15:10:01.619Z,6.90
2023-05-21T15:13:04.348Z,7.15
2023-05-21T15:16:07.160Z,6.88
2023-05-21T15:19:09.978Z,7.93
2023-05-21T15:22:12.508Z,6.15
2023-05-21T15:25:15.490Z,6.97
2023-05-21T15:28:18.437Z,6.43
2023-05-21T15:31:21.022Z,6.60
2023-05-21T15:34:23.585Z,6.30
2023-05-21T15:37:26.595Z,7.45
2023-05-21T15:40:29.186Z,7.15
2023-05-21T15:43:31.814Z,6.70
2023-05-21T15:46:34.482Z,5.68
2023-05-21T15:49:37.207Z,6.47
2023-05-21T15:52:40.194Z,6.60
2023-05-21T15:55:42.790Z,6.65
2023-05-21T15:58:45.355Z,6.95
2023-05-21T16:01:48.305Z,6.93
2023-05-21T16:04:52.170Z,6.63
2023-05-21T16:07:54.945Z,7.40
2023-05-21T16:10:57.682Z,6.70
2023-05-21T16:14:00.284Z,6.38
2023-05-21T16:17:02.842Z,7.07
2023-05-21T16:20:06.547Z,5.77
2023-05-21T16:23:09.202Z,7.85
2023-05-21T16:26:12.010Z,6.30
2023-05-21T16:29:14.614Z,7.40
2023-05-21T16:32:17.339Z,6.25
2023-05-21T16:35:20.020Z,6.80
2023-05-21T16:38:22.889Z,7.18
2023-05-21T16:41:25.443Z,6.90
2023-05-21T16:44:28.050Z,6.10
2023-05-21T16:47:30.733Z,6.40
2023-05-21T16:50:33.439Z,6.37
2023-05-21T16:53:36.320Z,6.80
2023-05-21T16:56:39.049Z,6.65
2023-05-21T16:59:41.824Z,6.30
2023-05-21T17:02:44.459Z,6.72
2023-05-21T17:05:47.170Z,6.53
2023-05-21T17:08:49.785Z,6.38
2023-05-21T17:11:52.505Z,6.00
2023-05-21T17:14:55.083Z,7.45
2023-05-21T17:17:57.666Z,6.60
2023-05-21T17:21:00.272Z,6.00
2023-05-21T17:24:02.891Z,5.88
2023-05-21T17:27:05.695Z,6.93
2023-05-21T17:30:10.290Z,6.30
2023-05-21T17:33:13.146Z,6.45
2023-05-21T17:36:16.384Z,6.60
2023-05-21T17:39:19.586Z,7.38
2023-05-21T17:42:22.200Z,7.03
2023-05-21T17:45:24.798Z,6.90
2023-05-21T17:48:27.330Z,6.90
2023-05-21T17:51:29.944Z,6.03
2023-05-21T17:54:34.127Z,5.93
2023-05-21T17:57:36.828Z,7.35
2023-05-21T18:00:39.537Z,6.97
2023-05-21T18:03:42.721Z,5.55
2023-05-21T18:06:45.610Z,6.33
2023-05-21T18:09:48.238Z,6.20
2023-05-21T18:12:50.978Z,7.47
2023-05-21T18:15:56.325Z,6.00
2023-05-21T18:19:02.304Z,6.32
2023-05-21T18:22:05.517Z,6.93
2023-05-21T18:25:09.078Z,5.95
2023-05-21T18:28:12.407Z,6.20
2023-05-21T18:31:17.291Z,6.38
2023-05-21T18:34:20.577Z,7.15
2023-05-21T18:37:23.989Z,5.80
2023-05-21T18:40:30.710Z,5.88
2023-05-21T18:43:34.438Z,6.68
2023-05-21T18:46:38.405Z,5.80
2023-05-21T18:49:42.240Z,6.55
2023-05-21T18:52:46.879Z,5.73
2023-05-21T18:55:50.791Z,6.05
2023-05-21T18:58:54.876Z,5.40
2023-05-21T19:01:58.616Z,6.88
2023-05-21T19:05:02.980Z,6.82
2023-05-21T19:08:08.896Z,6.33
2023-05-21T19:11:12.434Z,6.18
2023-05-21T19:14:16.527Z,5.63
2023-05-21T19:17:21.546Z,5.93
2023-05-21T19:20:27.258Z,5.53
2023-05-21T19:23:38.412Z,5.90
2023-05-21T19:26:52.569Z,6.55
2023-05-21T19:29:56.124Z,6.25
2023-05-21T19:32:59.784Z,6.22
2023-05-21T19:36:03.429Z,6.07
2023-05-21T19:39:07.753Z,4.70
2023-05-21T19:42:11.909Z,6.20
2023-05-21T19:45:16.435Z,5.88
2023-05-21T19:48:21.061Z,6.25
2023-05-21T19:51:24.697Z,6.30
2023-05-21T19:54:28.417Z,6.20
2023-05-21T19:57:32.723Z,6.05
2023-05-21T20:00:36.299Z,5.63
2023-05-21T20:03:42.770Z,5.53
2023-05-21T20:06:46.204Z,5.70
2023-05-21T20:09:49.492Z,6.40
2023-05-21T20:12:52.294Z,5.93
2023-05-21T20:15:54.857Z,5.60
2023-05-21T20:18:58.406Z,5.90
2023-05-21T20:22:01.121Z,5.88
2023-05-21T20:25:04.801Z,5.67
2023-05-21T20:28:08.641Z,4.78
2023-05-21T20:31:11.628Z,5.80
2023-05-21T20:34:14.324Z,5.70
2023-05-21T20:37:16.872Z,5.65
2023-05-21T20:40:19.697Z,6.23
2023-05-21T20:43:24.525Z,5.15
2023-05-21T20:46:28.245Z,5.47
2023-05-21T20:49:33.286Z,5.40
2023-05-21T20:52:36.363Z,6.55
2023-05-21T20:55:44.410Z,5.60
2023-05-21T20:58:49.758Z,5.70
2023-05-21T21:01:52.707Z,5.70
2023-05-21T21:04:56.353Z,5.68
2023-05-21T21:08:02.504Z,6.15
2023-05-21T21:11:05.233Z,5.70
2023-05-21T21:14:07.853Z,5.95
2023-05-21T21:17:10.530Z,7.55
2023-05-21T21:20:13.843Z,5.68
2023-05-21T21:23:17.634Z,6.07
2023-05-21T21:26:22.024Z,5.53
2023-05-21T21:29:24.602Z,5.35
2023-05-21T21:32:27.309Z,5.90
2023-05-21T21:35:29.893Z,5.55
2023-05-21T21:38:32.391Z,7.00
2023-05-21T21:41:35.232Z,5.80
2023-05-21T21:44:39.330Z,5.82
2023-05-21T21:47:41.982Z,5.55
2023-05-21T21:50:44.679Z,6.15
2023-05-21T21:53:47.273Z,5.93
2023-05-21T21:56:49.825Z,6.07
2023-05-21T21:59:52.387Z,5.32
2023-05-21T22:02:54.969Z,5.22
2023-05-21T22:05:57.599Z,5.15
2023-05-21T22:09:00.258Z,5.18
2023-05-21T22:12:07.802Z,5.80
2023-05-21T22:15:18.490Z,5.60
2023-05-21T22:18:38.887Z,5.43
2023-05-21T22:21:43.367Z,5.70
2023-05-21T22:24:45.984Z,5.40
2023-05-21T22:27:48.724Z,5.90
2023-05-21T22:30:51.656Z,6.40
2023-05-21T22:33:54.298Z,6.68
2023-05-21T22:36:56.864Z,5.47
2023-05-21T22:39:59.372Z,5.70
2023-05-21T22:43:02.996Z,6.20
2023-05-21T22:46:05.735Z,5.18
2023-05-21T22:49:10.331Z,5.15
2023-05-21T22:52:14.694Z,6.63
2023-05-21T22:55:17.278Z,4.97
2023-05-21T22:58:19.858Z,7.03
2023-05-21T23:01:23.615Z,5.90
2023-05-21T23:04:43.312Z,5.55
2023-05-21T23:07:47.072Z,5.82
2023-05-21T23:10:49.778Z,5.40
2023-05-21T23:13:52.397Z,4.90
2023-05-21T23:16:55.390Z,5.70
2023-05-21T23:19:59.530Z,4.80
2023-05-21T23:23:02.139Z,5.35
2023-05-21T23:26:04.649Z,5.95
2023-05-21T23:29:07.214Z,7.77
2023-05-21T23:32:10.183Z,6.00
2023-05-21T23:35:14.518Z,6.10
2023-05-21T23:38:17.106Z,5.60
2023-05-21T23:41:19.729Z,5.95
2023-05-21T23:44:22.404Z,6.40
2023-05-21T23:47:25.500Z,6.05
2023-05-21T23:50:28.057Z,6.85
2023-05-21T23:53:30.948Z,6.40
2023-05-21T23:56:33.642Z,5.53
2023-05-21T23:59:36.211Z,5.73
